Time;durP1;ratioP1;P1;durP2;ratioP2;P2;SDS_P1;SDS_P2;PMS_P1;PMS_P2;Temp;Humidity;BMP_temperature;BMP_pressure;BME280_temperature;BME280_humidity;BME280_pressure;Samples;Min_cycle;Max_cycle;Signal;HPM_P1;HPM_P2
2022/07/03 09:07:13;;;;;;;2.87;1.70;;;32.10;45.80;;;;;;6157443;22;2106077;-80
2022/07/03 09:09:41;;;;;;;4.13;1.40;;;32.30;45.70;;;;;;6213138;23;20363;-80
2022/07/03 09:12:08;;;;;;;1.95;1.35;;;32.50;46.60;;;;;;6212227;23;20359;-80
2022/07/03 09:14:35;;;;;;;1.77;1.50;;;32.40;45.10;;;;;;6212390;23;20692;-80
2022/07/03 09:17:02;;;;;;;2.42;1.50;;;32.60;43.70;;;;;;6212735;23;20432;-80
2022/07/03 09:19:48;;;;;;;2.38;1.40;;;32.60;45.20;;;;;;6212297;23;20425;-80
2022/07/03 09:22:27;;;;;;;3.38;1.70;;;32.80;44.60;;;;;;6213657;23;20375;-80
2022/07/03 09:25:06;;;;;;;1.85;1.50;;;32.90;45.30;;;;;;6212587;23;20362;-80
2022/07/03 09:27:33;;;;;;;2.20;1.98;;;33.00;45.10;;;;;;6212328;23;20366;-80
2022/07/03 09:30:09;;;;;;;2.10;1.30;;;33.00;43.10;;;;;;6213474;23;20358;-80
2022/07/03 09:32:46;;;;;;;2.33;1.48;;;33.00;42.60;;;;;;6212997;23;20436;-80
2022/07/03 09:35:31;;;;;;;3.15;1.80;;;32.90;42.20;;;;;;6212981;23;20401;-80
2022/07/03 09:37:59;;;;;;;1.80;1.40;;;32.90;43.90;;;;;;6213610;23;20417;-80
2022/07/03 09:40:28;;;;;;;1.83;1.40;;;32.90;42.70;;;;;;6213378;23;20390;-80
2022/07/03 09:43:08;;;;;;;3.47;1.60;;;32.80;42.80;;;;;;6212401;23;20429;-80
2022/07/03 09:45:59;;;;;;;2.42;1.48;;;32.90;42.60;;;;;;6213738;23;20374;-81
2022/07/03 09:48:31;;;;;;;2.20;1.50;;;32.90;42.00;;;;;;6202864;23;20367;-80
2022/07/03 09:51:14;;;;;;;1.50;1.40;;;32.90;41.50;;;;;;6212532;23;20668;-80
2022/07/03 09:53:44;;;;;;;2.05;1.80;;;32.90;41.90;;;;;;6213155;23;20395;-80
2022/07/03 09:56:11;;;;;;;2.80;1.40;;;33.00;43.00;;;;;;6212973;23;20367;-80
2022/07/03 09:58:39;;;;;;;2.85;1.58;;;33.00;43.50;;;;;;6213612;23;20363;-80
2022/07/03 10:01:19;;;;;;;1.55;1.30;;;33.10;44.10;;;;;;6213102;23;20375;-81
2022/07/03 10:03:49;;;;;;;1.85;1.48;;;33.20;42.40;;;;;;6212820;23;20465;-80
2022/07/03 10:06:16;;;;;;;1.70;1.60;;;33.30;40.90;;;;;;6213270;23;20359;-81
2022/07/03 10:08:43;;;;;;;1.90;1.45;;;33.20;39.80;;;;;;6212793;23;20406;-81
2022/07/03 10:11:10;;;;;;;1.60;1.30;;;33.20;40.30;;;;;;6212646;23;20363;-81
2022/07/03 10:13:42;;;;;;;1.80;1.40;;;33.20;40.80;;;;;;6212645;23;20382;-80
2022/07/03 10:16:09;;;;;;;1.90;1.40;;;33.30;40.10;;;;;;6212355;23;20354;-80
2022/07/03 10:18:37;;;;;;;2.63;1.20;;;33.30;39.60;;;;;;6212642;23;20386;-80
2022/07/03 10:21:08;;;;;;;3.08;1.40;;;33.30;40.50;;;;;;6213314;23;20924;-80
2022/07/03 10:23:35;;;;;;;2.00;1.08;;;33.40;40.50;;;;;;6214013;23;20363;-81
2022/07/03 10:26:02;;;;;;;2.20;1.25;;;33.60;40.20;;;;;;6213683;23;20405;-81
2022/07/03 10:28:31;;;;;;;1.92;1.42;;;33.80;39.40;;;;;;6213306;23;20428;-80
2022/07/03 10:31:00;;;;;;;2.77;1.70;;;33.90;36.80;;;;;;6213692;23;20378;-81
2022/07/03 10:33:28;;;;;;;1.52;1.10;;;33.90;37.00;;;;;;6212489;23;20367;-80
2022/07/03 10:35:57;;;;;;;1.50;1.40;;;33.90;38.50;;;;;;6214406;23;20355;-81
2022/07/03 10:38:42;;;;;;;3.70;1.65;;;33.90;38.60;;;;;;6211264;23;20417;-81
2022/07/03 10:47:02;;;;;;;2.97;1.48;;;33.80;40.90;;;;;;6212914;23;20363;-81
2022/07/03 10:49:34;;;;;;;2.30;1.48;;;33.80;40.20;;;;;;6211015;23;20441;-81
2022/07/03 10:52:03;;;;;;;3.00;1.43;;;33.80;39.30;;;;;;6212550;23;20416;-81
2022/07/03 10:54:37;;;;;;;2.45;1.70;;;33.70;40.60;;;;;;6212001;23;20453;-81
2022/07/03 10:57:04;;;;;;;2.10;1.50;;;33.70;38.90;;;;;;6212129;23;20367;-81
2022/07/03 10:59:44;;;;;;;2.45;1.50;;;33.70;39.30;;;;;;6212548;23;20374;-81
2022/07/03 11:02:36;;;;;;;4.13;1.77;;;33.70;38.60;;;;;;6212627;23;20390;-80
2022/07/03 11:05:11;;;;;;;3.43;1.50;;;33.60;40.00;;;;;;6212773;23;20363;-80
2022/07/03 11:07:44;;;;;;;2.65;1.48;;;33.70;39.80;;;;;;6212480;23;20371;-83
2022/07/03 11:10:15;;;;;;;1.50;1.25;;;34.00;39.40;;;;;;6212769;23;20780;-84
2022/07/03 11:13:03;;;;;;;3.10;1.53;;;34.10;40.60;;;;;;6212248;23;20394;-84
2022/07/03 11:15:37;;;;;;;2.70;1.38;;;34.20;40.30;;;;;;6211949;23;20379;-83
2022/07/03 11:18:16;;;;;;;1.67;1.48;;;34.20;39.60;;;;;;6212729;23;20743;-84
2022/07/03 11:20:43;;;;;;;2.67;1.50;;;34.20;40.20;;;;;;6212514;23;20409;-84
2022/07/03 11:23:09;;;;;;;2.28;1.58;;;34.40;39.70;;;;;;6210757;23;20375;-84
2022/07/03 11:25:45;;;;;;;1.83;1.25;;;34.50;39.80;;;;;;6212612;23;20359;-84
2022/07/03 11:28:38;;;;;;;1.60;1.30;;;34.70;40.70;;;;;;6212972;23;20355;-84
2022/07/03 11:33:42;;;;;;;2.70;1.40;;;34.80;38.60;;;;;;6215728;23;20840;-84
2022/07/03 11:36:15;;;;;;;2.40;1.40;;;34.90;40.00;;;;;;6214780;23;20355;-84
2022/07/03 11:39:00;;;;;;;2.28;1.30;;;35.00;40.70;;;;;;6215985;23;20378;-84
2022/07/03 11:41:36;;;;;;;2.75;1.40;;;35.00;39.40;;;;;;6215130;23;20892;-83
2022/07/03 11:44:05;;;;;;;2.03;1.30;;;34.90;38.80;;;;;;6214110;23;20385;-84
2022/07/03 11:46:37;;;;;;;2.75;1.70;;;34.90;38.50;;;;;;6214534;23;20409;-84
2022/07/03 11:49:08;;;;;;;3.20;1.40;;;34.90;37.80;;;;;;6214261;23;20355;-84
2022/07/03 11:51:37;;;;;;;2.97;1.50;;;34.70;39.90;;;;;;6213862;23;20370;-84
2022/07/03 11:54:05;;;;;;;1.50;1.23;;;34.60;37.80;;;;;;6213311;23;20391;-83
2022/07/03 11:56:33;;;;;;;1.17;1.08;;;34.50;39.00;;;;;;6213621;23;20444;-84
2022/07/03 11:59:03;;;;;;;2.10;1.83;;;34.50;39.10;;;;;;6213982;23;20367;-84
2022/07/03 12:01:38;;;;;;;2.00;1.40;;;34.70;39.10;;;;;;6214269;23;20762;-83
2022/07/03 12:04:09;;;;;;;3.35;1.60;;;34.80;39.10;;;;;;6215629;23;20811;-84
2022/07/03 12:06:43;;;;;;;1.80;1.20;;;34.90;38.70;;;;;;6214166;23;20355;-84
2022/07/03 12:09:26;;;;;;;1.30;1.20;;;35.00;38.80;;;;;;6213515;23;20367;-84
2022/07/03 12:12:10;;;;;;;2.13;1.30;;;35.20;38.00;;;;;;6214283;23;20363;-84
2022/07/03 12:14:42;;;;;;;1.40;1.20;;;35.30;37.70;;;;;;6215112;23;20402;-84
2022/07/03 12:17:22;;;;;;;3.55;1.40;;;35.30;37.40;;;;;;6215451;23;20450;-83
2022/07/03 12:19:55;;;;;;;2.42;1.30;;;35.40;37.60;;;;;;6213706;23;20359;-84
2022/07/03 12:22:33;;;;;;;2.30;1.30;;;35.60;37.10;;;;;;6214274;23;20754;-83
2022/07/03 12:25:11;;;;;;;2.42;1.30;;;35.70;35.80;;;;;;6214173;23;20362;-83
2022/07/03 12:27:40;;;;;;;1.55;1.30;;;35.60;35.30;;;;;;6213344;23;20375;-83
2022/07/03 12:30:12;;;;;;;1.30;1.20;;;35.60;35.50;;;;;;6213155;23;20371;-83
2022/07/03 12:32:39;;;;;;;2.28;1.23;;;35.60;36.00;;;;;;6214081;23;20417;-83
2022/07/03 12:35:07;;;;;;;2.78;1.20;;;35.60;35.80;;;;;;6213317;23;20371;-84
2022/07/03 12:37:40;;;;;;;3.00;1.55;;;35.70;35.30;;;;;;6213528;23;20370;-83
2022/07/03 12:40:13;;;;;;;1.40;1.10;;;35.90;35.30;;;;;;6213851;23;20354;-83
2022/07/03 12:42:51;;;;;;;1.35;0.90;;;36.20;35.50;;;;;;6213358;23;20379;-84
2022/07/03 12:45:23;;;;;;;2.10;1.23;;;36.40;33.50;;;;;;6213740;23;20715;-84
2022/07/03 12:47:59;;;;;;;1.50;1.13;;;36.50;33.10;;;;;;6213279;23;20347;-85
2022/07/03 12:50:42;;;;;;;2.15;1.02;;;36.50;33.90;;;;;;6213645;23;20465;-84
2022/07/03 12:53:09;;;;;;;1.80;1.20;;;36.60;33.40;;;;;;6213850;23;20367;-84
2022/07/03 12:55:45;;;;;;;1.80;1.02;;;36.50;33.40;;;;;;6213744;23;20432;-84
2022/07/03 13:01:28;;;;;;;1.77;1.08;;;36.50;34.40;;;;;;6215154;23;20374;-84
2022/07/03 13:03:55;;;;;;;2.23;1.30;;;36.60;35.30;;;;;;6213305;23;20351;-84
2022/07/03 13:06:23;;;;;;;1.15;0.90;;;36.80;34.10;;;;;;6213339;23;20359;-84
2022/07/03 13:08:56;;;;;;;2.90;1.10;;;36.80;33.60;;;;;;6212408;23;20383;-84
2022/07/03 13:11:26;;;;;;;1.90;1.37;;;36.80;33.20;;;;;;6212809;23;20489;-84
2022/07/03 13:14:00;;;;;;;1.90;1.00;;;36.90;33.40;;;;;;6212800;23;20358;-84
2022/07/03 13:16:28;;;;;;;1.30;0.90;;;36.80;32.80;;;;;;6212155;23;20716;-84
2022/07/03 13:19:02;;;;;;;2.38;1.10;;;36.70;33.40;;;;;;6212480;23;20386;-84
2022/07/03 13:21:29;;;;;;;1.45;1.00;;;36.90;33.90;;;;;;6212360;23;20692;-85
2022/07/03 13:24:02;;;;;;;1.80;1.10;;;37.00;33.80;;;;;;6211720;23;20377;-84
2022/07/03 13:26:30;;;;;;;1.40;1.20;;;37.00;32.60;;;;;;6212397;23;20747;-84
2022/07/03 13:28:57;;;;;;;1.47;0.97;;;37.10;32.70;;;;;;6212418;23;20711;-84
2022/07/03 13:31:24;;;;;;;1.40;0.90;;;37.30;32.90;;;;;;6211851;23;20367;-84
2022/07/03 13:33:51;;;;;;;1.60;1.00;;;37.50;32.10;;;;;;6212787;23;20369;-84
2022/07/03 13:36:18;;;;;;;0.95;0.80;;;37.60;31.90;;;;;;6213291;23;20669;-84
2022/07/03 13:38:45;;;;;;;2.05;1.20;;;37.70;32.00;;;;;;6212558;23;20374;-84
2022/07/03 13:41:12;;;;;;;1.80;1.20;;;37.80;32.20;;;;;;6212956;23;20359;-84
2022/07/03 13:43:39;;;;;;;2.80;0.90;;;37.80;30.80;;;;;;6212574;23;20395;-84
2022/07/03 13:46:06;;;;;;;2.08;0.98;;;37.60;30.80;;;;;;6213243;23;20359;-83
2022/07/03 13:48:34;;;;;;;1.70;1.10;;;37.70;31.30;;;;;;6212847;23;20425;-86
2022/07/03 13:51:01;;;;;;;1.90;1.30;;;37.60;30.40;;;;;;6214228;23;20355;-85
2022/07/03 13:53:28;;;;;;;1.70;0.90;;;37.70;30.70;;;;;;6212943;23;20893;-85
2022/07/03 13:55:56;;;;;;;1.35;0.80;;;37.70;29.90;;;;;;6212898;23;20355;-85
2022/07/03 13:58:23;;;;;;;2.10;0.80;;;37.80;30.10;;;;;;6212713;23;20358;-85
2022/07/03 14:00:50;;;;;;;1.60;0.77;;;37.90;30.00;;;;;;6212422;23;20362;-85
2022/07/03 14:03:17;;;;;;;1.80;0.80;;;37.80;27.40;;;;;;6213239;23;20390;-85
2022/07/03 14:05:44;;;;;;;1.02;0.80;;;37.80;28.60;;;;;;6212739;23;20435;-85
2022/07/03 14:08:11;;;;;;;1.30;0.80;;;37.90;29.50;;;;;;6212799;23;20708;-84
2022/07/03 14:10:38;;;;;;;1.10;1.00;;;38.00;28.80;;;;;;6214108;23;20354;-84
2022/07/03 14:13:06;;;;;;;1.93;0.83;;;38.10;30.00;;;;;;6188005;23;20412;-84
2022/07/03 14:15:33;;;;;;;0.90;0.90;;;38.20;29.70;;;;;;6212830;23;20359;-84
2022/07/03 14:18:01;;;;;;;2.77;0.90;;;38.30;29.40;;;;;;6212910;23;20367;-84
2022/07/03 14:20:29;;;;;;;2.23;1.10;;;38.50;29.10;;;;;;6212382;23;20745;-84
2022/07/03 14:22:56;;;;;;;1.58;0.70;;;38.40;29.10;;;;;;6212128;23;20378;-84
2022/07/03 14:25:23;;;;;;;3.15;1.10;;;38.40;29.80;;;;;;6213066;23;20363;-84
2022/07/03 14:33:21;;;;;;;3.50;0.85;;;38.90;30.70;;;;;;6212945;23;20512;-84
2022/07/03 14:35:48;;;;;;;1.73;0.80;;;39.00;31.40;;;;;;6211526;23;20355;-84
2022/07/03 14:38:14;;;;;;;1.20;1.00;;;39.10;30.70;;;;;;6212235;23;20422;-84
2022/07/03 14:40:41;;;;;;;1.10;0.95;;;39.10;29.60;;;;;;6211644;23;20363;-84
2022/07/03 14:43:08;;;;;;;1.08;0.70;;;39.10;29.10;;;;;;6213080;23;20464;-83
2022/07/03 14:45:35;;;;;;;1.15;1.00;;;39.00;29.30;;;;;;6212750;23;20723;-84
2022/07/03 14:48:08;;;;;;;1.17;0.68;;;39.10;29.40;;;;;;6212748;23;20831;-84
2022/07/03 14:50:36;;;;;;;1.08;0.90;;;39.10;29.70;;;;;;6212453;23;20375;-84
2022/07/03 14:53:06;;;;;;;1.93;1.00;;;39.20;29.50;;;;;;6212080;23;20434;-84
2022/07/03 14:55:37;;;;;;;1.67;0.80;;;39.10;30.00;;;;;;6211693;23;20720;-85
2022/07/03 14:58:21;;;;;;;1.83;0.75;;;39.00;29.70;;;;;;6211667;23;20362;-84
2022/07/03 15:00:53;;;;;;;1.92;0.93;;;39.10;29.60;;;;;;6212093;23;20359;-84
2022/07/03 15:03:34;;;;;;;1.00;0.90;;;39.20;29.40;;;;;;6211987;23;20386;-84
2022/07/03 15:06:07;;;;;;;1.77;1.02;;;39.40;29.50;;;;;;6214347;23;20429;-84
2022/07/03 15:08:34;;;;;;;1.27;0.80;;;39.60;29.70;;;;;;6213266;23;20367;-85
2022/07/03 15:14:05;;;;;;;1.70;0.93;;;39.70;29.20;;;;;;6215314;23;20393;-84
2022/07/03 15:16:33;;;;;;;1.30;0.77;;;39.70;28.90;;;;;;6215159;23;20351;-84
2022/07/03 15:19:01;;;;;;;0.70;0.70;;;39.80;28.90;;;;;;6214948;23;20480;-84
2022/07/03 15:21:31;;;;;;;3.30;1.00;;;39.80;28.70;;;;;;6215404;23;20355;-85
2022/07/03 15:24:04;;;;;;;1.85;0.95;;;39.90;29.10;;;;;;6214337;23;20389;-84
2022/07/03 15:26:31;;;;;;;1.00;0.80;;;39.90;29.10;;;;;;6213978;23;20831;-84
2022/07/03 15:29:00;;;;;;;1.30;0.90;;;39.80;29.00;;;;;;6213310;23;20417;-84
2022/07/03 15:31:28;;;;;;;1.00;0.80;;;39.80;29.00;;;;;;6213845;23;20433;-84
2022/07/03 15:33:56;;;;;;;1.27;0.90;;;39.80;28.90;;;;;;6213872;23;20370;-84
2022/07/03 15:36:29;;;;;;;1.30;0.93;;;39.80;28.60;;;;;;6213485;23;20425;-84
2022/07/03 15:39:04;;;;;;;1.58;0.80;;;39.60;28.30;;;;;;6213330;23;20909;-84
2022/07/03 15:41:57;;;;;;;2.03;0.90;;;39.40;28.70;;;;;;6214060;23;20386;-84
2022/07/03 15:44:37;;;;;;;1.67;0.77;;;39.30;28.50;;;;;;6213934;23;20379;-85
2022/07/03 15:47:28;;;;;;;1.23;0.90;;;39.30;29.10;;;;;;6213806;23;20405;-84
2022/07/03 15:49:59;;;;;;;3.08;1.20;;;39.30;29.30;;;;;;6214078;23;20359;-84
2022/07/03 15:52:29;;;;;;;0.83;0.83;;;39.40;29.60;;;;;;6214283;23;20360;-83
2022/07/03 15:55:01;;;;;;;0.80;0.80;;;39.50;29.60;;;;;;6215249;23;20428;-85
2022/07/03 15:57:45;;;;;;;1.63;0.80;;;39.70;29.60;;;;;;6214388;23;20351;-84
2022/07/03 16:00:14;;;;;;;1.50;0.90;;;39.90;29.60;;;;;;6213671;23;20417;-84
2022/07/03 16:02:47;;;;;;;1.25;0.90;;;40.10;30.00;;;;;;6213169;23;20390;-84
2022/07/03 16:05:19;;;;;;;1.00;0.77;;;40.30;29.50;;;;;;6213367;23;20390;-84
2022/07/03 16:07:50;;;;;;;1.45;0.80;;;40.30;29.20;;;;;;6213231;23;20373;-84
2022/07/03 16:10:19;;;;;;;1.60;0.80;;;40.40;28.90;;;;;;6212571;23;20367;-83
2022/07/03 16:12:49;;;;;;;0.75;0.70;;;40.40;29.40;;;;;;6214298;23;20778;-83
2022/07/03 16:15:16;;;;;;;0.90;0.80;;;40.50;29.50;;;;;;6213371;23;20371;-84
2022/07/03 16:17:45;;;;;;;1.13;0.90;;;40.50;29.10;;;;;;6213566;23;20351;-84
2022/07/03 16:20:14;;;;;;;0.70;0.70;;;40.40;29.00;;;;;;6213699;23;20367;-84
2022/07/03 16:22:42;;;;;;;0.82;0.73;;;40.40;29.50;;;;;;6212455;23;20433;-84
2022/07/03 16:25:09;;;;;;;1.00;0.90;;;40.30;29.70;;;;;;6212698;23;20366;-84
2022/07/03 16:27:36;;;;;;;1.17;0.90;;;40.20;29.90;;;;;;6213508;23;20370;-84
2022/07/03 16:30:04;;;;;;;0.80;0.70;;;40.10;29.50;;;;;;6214690;23;20421;-83
2022/07/03 16:32:40;;;;;;;0.97;0.90;;;39.90;29.80;;;;;;6213714;23;20363;-84
2022/07/03 16:35:08;;;;;;;1.50;0.90;;;39.60;30.00;;;;;;6213678;23;20362;-84
2022/07/03 16:37:58;;;;;;;1.60;0.77;;;39.40;30.30;;;;;;6213469;23;20355;-84
2022/07/03 16:40:26;;;;;;;1.60;1.30;;;39.20;31.00;;;;;;6213825;23;20915;-84
2022/07/03 16:42:56;;;;;;;1.73;0.90;;;39.10;31.00;;;;;;6213509;23;20441;-83
2022/07/03 16:45:29;;;;;;;1.27;0.77;;;39.00;30.60;;;;;;6213549;23;20413;-84
2022/07/03 16:48:09;;;;;;;1.57;0.90;;;38.90;30.90;;;;;;6213609;23;20433;-84
2022/07/03 16:50:39;;;;;;;1.83;0.87;;;38.80;31.20;;;;;;6213834;23;20368;-83
2022/07/03 16:53:06;;;;;;;1.23;0.90;;;38.60;31.70;;;;;;6214767;23;20363;-82
2022/07/03 16:55:33;;;;;;;0.73;0.73;;;38.50;32.10;;;;;;6213654;23;20367;-82
2022/07/03 16:58:01;;;;;;;1.00;0.90;;;38.20;32.50;;;;;;6213640;23;20359;-83
2022/07/03 17:00:29;;;;;;;1.15;0.80;;;38.00;33.20;;;;;;6212544;23;20402;-83
2022/07/03 17:02:57;;;;;;;0.83;0.73;;;37.90;34.00;;;;;;6212550;23;20496;-82
2022/07/03 17:05:25;;;;;;;1.70;1.00;;;37.60;34.30;;;;;;6212669;23;20382;-83
2022/07/03 17:07:54;;;;;;;0.98;0.80;;;37.50;35.60;;;;;;6212545;23;20370;-83
2022/07/03 17:10:25;;;;;;;1.52;1.20;;;37.30;36.40;;;;;;6213434;23;20362;-82
2022/07/03 17:12:54;;;;;;;1.15;1.08;;;37.00;40.10;;;;;;6213799;23;20371;-82
2022/07/03 17:15:23;;;;;;;1.27;1.17;;;36.70;42.00;;;;;;6213366;23;20676;-83
2022/07/03 17:17:58;;;;;;;1.90;1.30;;;36.40;42.40;;;;;;6213591;23;20350;-82
2022/07/03 17:20:29;;;;;;;1.73;1.30;;;36.10;43.50;;;;;;6213174;23;20366;-80
2022/07/03 17:23:22;;;;;;;1.45;1.35;;;35.90;44.50;;;;;;6214490;23;20387;-83
2022/07/03 17:26:01;;;;;;;1.40;1.30;;;35.60;45.50;;;;;;6210752;23;20367;-83
2022/07/03 17:28:48;;;;;;;1.60;1.45;;;35.40;45.10;;;;;;6212909;23;20366;-83
2022/07/03 17:31:20;;;;;;;3.17;2.00;;;35.10;44.80;;;;;;6213404;23;20363;-83
2022/07/03 17:34:00;;;;;;;1.55;1.40;;;34.90;45.40;;;;;;6214327;23;20391;-82
2022/07/03 17:36:28;;;;;;;1.90;1.52;;;34.70;45.70;;;;;;6212933;23;20893;-83
2022/07/03 17:38:57;;;;;;;1.40;1.30;;;34.60;45.10;;;;;;6212319;23;20424;-83
2022/07/03 17:41:29;;;;;;;1.40;1.30;;;34.40;44.80;;;;;;6210857;23;20363;-83
2022/07/03 17:43:57;;;;;;;1.55;1.40;;;34.30;44.90;;;;;;6212064;23;20414;-83
2022/07/03 17:46:25;;;;;;;1.98;1.52;;;34.20;45.60;;;;;;6212110;23;20764;-83
2022/07/03 17:48:53;;;;;;;2.30;1.70;;;34.10;46.30;;;;;;6213650;23;20379;-83
2022/07/03 17:51:22;;;;;;;1.35;1.25;;;34.00;46.90;;;;;;6212890;23;20731;-85
2022/07/03 17:53:51;;;;;;;1.95;1.67;;;33.90;47.40;;;;;;6211927;23;20359;-83
2022/07/03 17:56:21;;;;;;;1.98;1.60;;;33.80;46.90;;;;;;6210673;23;20375;-83
2022/07/03 17:58:49;;;;;;;2.78;1.80;;;33.70;46.00;;;;;;6212476;23;20411;-83
2022/07/03 18:01:23;;;;;;;2.10;1.90;;;33.60;45.10;;;;;;6188995;23;20429;-83
2022/07/03 18:03:50;;;;;;;2.77;1.87;;;33.50;45.10;;;;;;6212533;23;20386;-83
2022/07/03 18:06:24;;;;;;;1.65;1.55;;;33.40;45.30;;;;;;6213082;23;20398;-83
2022/07/03 18:08:52;;;;;;;1.65;1.45;;;33.30;45.40;;;;;;6238189;23;20760;-83
2022/07/03 18:11:53;;;;;;;2.15;1.95;;;33.30;46.00;;;;;;6217805;23;20365;-83
2022/07/03 18:15:05;;;;;;;1.90;1.80;;;33.20;46.50;;;;;;6217266;23;20373;-83
2022/07/03 18:17:34;;;;;;;2.97;1.65;;;33.00;47.10;;;;;;6092309;23;20381;-83
2022/07/03 18:20:02;;;;;;;1.80;1.70;;;33.00;47.60;;;;;;6069086;23;20374;-83
2022/07/03 18:22:30;;;;;;;3.15;1.80;;;32.90;47.70;;;;;;6150692;23;20845;-83
2022/07/03 18:25:03;;;;;;;2.40;1.80;;;32.80;48.40;;;;;;6217688;23;20374;-83
2022/07/03 18:27:32;;;;;;;1.85;1.70;;;32.70;48.30;;;;;;6217292;23;20362;-83
2022/07/03 18:30:00;;;;;;;1.90;1.80;;;32.60;48.20;;;;;;6217452;23;20373;-83
2022/07/03 18:32:28;;;;;;;2.72;2.03;;;32.60;48.60;;;;;;6218071;23;20703;-82
2022/07/03 18:34:57;;;;;;;2.53;1.77;;;32.50;48.80;;;;;;6244407;23;20357;-82
2022/07/03 18:37:23;;;;;;;2.20;2.00;;;32.40;49.30;;;;;;6217663;23;20361;-83
2022/07/03 18:39:51;;;;;;;2.33;2.10;;;32.30;50.80;;;;;;6244085;23;20357;-83
2022/07/03 18:42:19;;;;;;;1.88;1.77;;;32.10;51.70;;;;;;6216808;23;20391;-82
2022/07/03 18:44:47;;;;;;;2.67;2.47;;;32.00;52.00;;;;;;6217227;23;20416;-82
2022/07/03 18:47:14;;;;;;;2.30;2.10;;;31.90;52.20;;;;;;6218689;23;20016;-83
2022/07/03 18:49:42;;;;;;;3.92;3.63;;;31.80;52.50;;;;;;6218531;23;20444;-83
2022/07/03 18:52:22;;;;;;;2.80;2.53;;;31.70;52.50;;;;;;6217058;23;20911;-83
2022/07/03 18:55:16;;;;;;;3.20;2.30;;;31.60;52.50;;;;;;6217599;23;20761;-82
2022/07/03 18:57:53;;;;;;;2.00;1.80;;;31.50;52.60;;;;;;6217845;23;20733;-82
2022/07/03 19:00:29;;;;;;;2.60;2.40;;;31.40;52.30;;;;;;6217814;23;20353;-83
2022/07/03 19:03:14;;;;;;;2.00;1.90;;;31.30;52.60;;;;;;6243957;23;20353;-83
2022/07/03 19:05:53;;;;;;;2.00;1.80;;;31.20;52.50;;;;;;6217514;23;20357;-83
2022/07/03 19:08:46;;;;;;;1.97;1.87;;;31.20;52.50;;;;;;6242929;23;20368;-83
2022/07/03 19:11:17;;;;;;;3.13;2.78;;;31.10;53.00;;;;;;6218763;23;20069;-82
2022/07/03 19:13:58;;;;;;;3.55;2.88;;;31.00;53.00;;;;;;6218342;23;20051;-82
2022/07/03 19:16:32;;;;;;;3.42;2.72;;;30.90;53.50;;;;;;6219096;23;20020;-83
2022/07/03 19:18:59;;;;;;;3.05;2.85;;;30.70;53.80;;;;;;6245984;23;20344;-83
2022/07/03 19:21:27;;;;;;;2.95;2.47;;;30.60;53.90;;;;;;6219053;23;20078;-82
2022/07/03 19:23:54;;;;;;;;;;;30.50;54.10;;;;;;6218949;23;20027;-83
2022/07/03 19:26:21;;;;;;;;;;;30.30;54.50;;;;;;6219735;23;19965;-83
2022/07/03 19:28:49;;;;;;;;;;;30.20;55.30;;;;;;6218880;23;20263;-83
2022/07/03 19:31:16;;;;;;;;;;;30.10;55.70;;;;;;6218863;23;19916;-82
2022/07/03 19:33:44;;;;;;;;;;;30.00;56.60;;;;;;6219541;23;19922;-83
2022/07/03 19:36:11;;;;;;;;;;;29.90;56.90;;;;;;6218244;23;19938;-82
2022/07/03 19:38:37;;;;;;;;;;;29.80;57.00;;;;;;6219951;23;19919;-82
2022/07/03 19:41:04;;;;;;;;;;;29.70;57.00;;;;;;6219582;23;19919;-82
2022/07/03 19:43:31;;;;;;;;;;;29.60;57.10;;;;;;6219598;23;19969;-83
2022/07/03 19:45:58;;;;;;;;;;;29.50;57.10;;;;;;6219721;23;19969;-82
2022/07/03 19:48:25;;;;;;;;;;;29.40;58.10;;;;;;6219587;23;19919;-82
2022/07/03 19:50:52;;;;;;;;;;;29.30;57.50;;;;;;6219910;23;19919;-82
2022/07/03 19:53:19;;;;;;;;;;;29.20;56.40;;;;;;6221630;23;20339;-83
2022/07/03 19:55:46;;;;;;;;;;;29.10;56.00;;;;;;6220053;23;19942;-83
2022/07/03 19:58:12;;;;;;;;;;;29.00;55.90;;;;;;6220799;23;19965;-82
2022/07/03 20:00:39;;;;;;;;;;;28.90;56.20;;;;;;6220401;23;19923;-82
2022/07/03 20:03:07;;;;;;;;;;;28.70;55.90;;;;;;6220750;23;19924;-82
2022/07/03 20:05:35;;;;;;;;;;;28.70;56.50;;;;;;6220858;23;19947;-82
2022/07/03 20:08:02;;;;;;;;;;;28.60;56.50;;;;;;6221217;23;19923;-83
2022/07/03 20:10:34;;;;;;;;;;;28.60;56.40;;;;;;6222307;23;19917;-82
2022/07/03 20:13:01;;;;;;;;;;;28.50;59.10;;;;;;6221214;23;19970;-82
2022/07/03 20:15:28;;;;;;;;;;;28.40;62.40;;;;;;6221507;23;19915;-82
2022/07/03 20:17:56;;;;;;;;;;;28.20;62.90;;;;;;6221088;23;19938;-82
2022/07/03 20:20:43;;;;;;;;;;;28.00;62.90;;;;;;6247415;23;19943;-82
2022/07/03 20:23:11;;;;;;;;;;;27.90;62.10;;;;;;6221138;23;19921;-82
2022/07/03 20:25:37;;;;;;;;;;;27.80;61.30;;;;;;6221280;23;19919;-82
2022/07/03 20:28:05;;;;;;;;;;;27.80;59.80;;;;;;6221353;23;19916;-82
2022/07/03 20:30:32;;;;;;;;;;;27.80;59.40;;;;;;6221100;23;19915;-82
2022/07/03 20:33:00;;;;;;;;;;;27.80;59.30;;;;;;6220201;23;19916;-82
2022/07/03 20:35:28;;;;;;;;;;;27.70;59.40;;;;;;6220714;23;19978;-82
2022/07/03 20:37:56;;;;;;;;;;;27.70;60.20;;;;;;6221222;23;19915;-82
2022/07/03 20:40:24;;;;;;;;;;;27.70;61.00;;;;;;6221187;23;19915;-82
2022/07/03 20:42:50;;;;;;;;;;;27.60;62.50;;;;;;6220705;23;19915;-81
2022/07/03 20:45:18;;;;;;;;;;;27.40;63.50;;;;;;6221006;23;20292;-81
2022/07/03 20:47:44;;;;;;;;;;;27.40;64.50;;;;;;6220500;23;19969;-82
2022/07/03 20:50:11;;;;;;;;;;;27.30;64.50;;;;;;6245458;23;19973;-81
2022/07/03 20:52:46;;;;;;;;;;;27.20;64.30;;;;;;6218461;23;19977;-81
2022/07/03 20:55:12;;;;;;;;;;;27.10;63.90;;;;;;6218802;23;19977;-82
2022/07/03 20:57:39;;;;;;;;;;;27.10;63.60;;;;;;6219069;23;19919;-82
2022/07/03 21:00:06;;;;;;;;;;;27.10;63.50;;;;;;6219550;23;19919;-82
2022/07/03 21:02:33;;;;;;;;;;;27.00;63.10;;;;;;6219571;23;19930;-82
2022/07/03 21:05:03;;;;;;;;;;;27.00;62.90;;;;;;6220677;23;20362;-82
2022/07/03 21:07:30;;;;;;;;;;;27.00;62.90;;;;;;6245781;23;19919;-82
2022/07/03 21:10:00;;;;;;;;;;;27.00;62.40;;;;;;6220195;23;20251;-82
2022/07/03 21:12:30;;;;;;;;;;;27.00;62.40;;;;;;6220107;23;19927;-82
2022/07/03 21:14:56;;;;;;;;;;;26.90;63.00;;;;;;6219684;23;20299;-81
2022/07/03 21:17:24;;;;;;;;;;;26.90;63.10;;;;;;6219566;23;19915;-82
2022/07/03 21:19:51;;;;;;;;;;;26.80;62.70;;;;;;6219699;23;20356;-82
2022/07/03 21:22:17;;;;;;;;;;;26.80;63.10;;;;;;6219374;23;19928;-82
2022/07/03 21:24:44;;;;;;;;;;;26.80;63.90;;;;;;6246116;23;19915;-82
2022/07/03 21:27:13;;;;;;;;;;;26.80;64.90;;;;;;6219300;23;19966;-82
2022/07/03 21:29:40;;;;;;;;;;;26.80;63.60;;;;;;6220040;23;19915;-82
2022/07/03 21:32:07;;;;;;;;;;;26.80;61.00;;;;;;6219023;23;19915;-81
2022/07/03 21:34:34;;;;;;;;;;;26.80;60.00;;;;;;6219047;23;20394;-82
2022/07/03 21:37:01;;;;;;;;;;;26.80;59.60;;;;;;6219250;23;19919;-82
2022/07/03 21:39:28;;;;;;;;;;;26.80;59.30;;;;;;6219271;23;19923;-81
2022/07/03 21:41:55;;;;;;;;;;;26.90;59.70;;;;;;6219243;23;19982;-82
2022/07/03 21:44:22;;;;;;;;;;;26.90;60.30;;;;;;6219378;23;19915;-82
2022/07/03 21:46:50;;;;;;;;;;;26.80;60.80;;;;;;6219450;23;19915;-82
2022/07/03 21:49:18;;;;;;;;;;;26.80;60.00;;;;;;6219270;23;19923;-82
2022/07/03 21:51:46;;;;;;;;;;;26.80;60.60;;;;;;6219777;23;19986;-82
2022/07/03 21:54:14;;;;;;;;;;;26.70;60.00;;;;;;6219119;23;19966;-82
2022/07/03 21:56:41;;;;;;;;;;;26.70;58.10;;;;;;6219343;23;19919;-81
2022/07/03 21:59:07;;;;;;;;;;;26.80;58.60;;;;;;6218626;23;19969;-82
2022/07/03 22:01:34;;;;;;;;;;;26.80;58.20;;;;;;6219279;23;19915;-81
2022/07/03 22:04:01;;;;;;;;;;;26.80;57.90;;;;;;6219389;23;19973;-81
2022/07/03 22:06:28;;;;;;;;;;;26.80;58.00;;;;;;6219169;23;20404;-82
2022/07/03 22:08:55;;;;;;;;;;;26.80;58.10;;;;;;6219581;23;19969;-81
2022/07/03 22:11:22;;;;;;;;;;;26.70;58.50;;;;;;6220512;23;19916;-82
2022/07/03 22:13:49;;;;;;;;;;;26.70;59.50;;;;;;6219663;23;19915;-81
2022/07/03 22:16:16;;;;;;;;;;;26.60;60.50;;;;;;6219512;23;19915;-81
2022/07/03 22:18:43;;;;;;;;;;;26.60;60.90;;;;;;6220001;23;19983;-81
2022/07/03 22:21:09;;;;;;;;;;;26.50;61.00;;;;;;6219953;23;19919;-81
2022/07/03 22:23:36;;;;;;;;;;;26.50;61.20;;;;;;6219794;23;19973;-81
2022/07/03 22:26:03;;;;;;;;;;;26.40;61.20;;;;;;6220165;23;19915;-81
2022/07/03 22:28:30;;;;;;;;;;;26.40;61.80;;;;;;6220016;23;19919;-82
2022/07/03 22:33:42;;;;;;;;;;;26.30;63.00;;;;;;6246360;23;19951;-81
2022/07/03 22:36:09;;;;;;;;;;;26.20;63.30;;;;;;6219836;23;19927;-82
2022/07/03 22:38:36;;;;;;;;;;;26.20;63.40;;;;;;6219529;23;20264;-81
2022/07/03 22:41:02;;;;;;;;;;;26.10;63.90;;;;;;6218023;23;19985;-82
2022/07/03 22:43:29;;;;;;;;;;;26.00;63.90;;;;;;6219214;23;19920;-81
2022/07/03 22:45:56;;;;;;;;;;;26.00;63.80;;;;;;6219981;23;19942;-81
2022/07/03 22:48:23;;;;;;;;;;;25.90;63.50;;;;;;6220337;23;19915;-82
2022/07/03 22:50:50;;;;;;;;;;;25.80;62.80;;;;;;6219963;23;19916;-81
2022/07/03 22:53:16;;;;;;;;;;;25.80;62.30;;;;;;6220069;23;19919;-81
2022/07/03 22:55:43;;;;;;;;;;;25.80;61.90;;;;;;6219694;23;20233;-82
2022/07/03 22:58:10;;;;;;;;;;;25.80;61.30;;;;;;6219895;23;20306;-82